createdAt,value
2022-10-12T00:01:22.336Z,17.45
2022-10-12T00:03:51.687Z,19.90
2022-10-12T00:06:25.400Z,18.63
2022-10-12T00:08:56.664Z,18.60
2022-10-12T00:11:28.699Z,20.27
2022-10-12T00:13:58.718Z,27.40
2022-10-12T00:16:32.700Z,17.17
2022-10-12T00:19:03.080Z,21.38
2022-10-12T00:21:33.257Z,23.95
2022-10-12T00:24:03.577Z,16.42
2022-10-12T00:26:34.652Z,18.98
2022-10-12T00:29:05.070Z,19.13
2022-10-12T00:31:35.053Z,18.55
2022-10-12T00:34:05.559Z,21.38
2022-10-12T00:36:37.355Z,18.75
2022-10-12T00:39:08.933Z,23.10
2022-10-12T00:41:42.589Z,17.13
2022-10-12T00:44:40.011Z,23.00
2022-10-12T00:47:12.897Z,18.42
2022-10-12T00:49:42.531Z,20.92
2022-10-12T00:52:16.428Z,23.27
2022-10-12T00:54:51.184Z,23.30
2022-10-12T00:57:21.562Z,23.38
2022-10-12T00:59:58.611Z,24.17
2022-10-12T01:02:30.850Z,19.38
2022-10-12T01:05:01.165Z,25.42
2022-10-12T01:07:31.612Z,22.30
2022-10-12T01:10:01.114Z,22.30
2022-10-12T01:12:31.957Z,19.05
2022-10-12T01:15:06.778Z,17.30
2022-10-12T01:17:43.320Z,29.02
2022-10-12T01:20:52.958Z,18.73
2022-10-12T01:24:01.698Z,21.63
2022-10-12T01:26:48.293Z,24.38
2022-10-12T01:29:26.859Z,16.23
2022-10-12T01:32:17.727Z,20.15
2022-10-12T01:34:55.874Z,41.35
2022-10-12T01:37:35.735Z,19.38
2022-10-12T01:40:16.647Z,21.27
2022-10-12T01:42:51.261Z,15.00
2022-10-12T01:45:22.478Z,18.58
2022-10-12T01:47:54.439Z,16.45
2022-10-12T01:50:34.288Z,14.07
2022-10-12T01:53:25.769Z,13.10
2022-10-12T01:56:09.148Z,15.30
2022-10-12T01:59:05.043Z,33.45
2022-10-12T02:01:44.249Z,15.48
2022-10-12T02:04:23.441Z,15.55
2022-10-12T02:07:02.634Z,12.65
2022-10-12T02:09:36.577Z,15.38
2022-10-12T02:12:14.767Z,16.52
2022-10-12T02:14:50.169Z,20.63
2022-10-12T02:17:28.928Z,15.35
2022-10-12T02:20:01.588Z,15.07
2022-10-12T02:22:36.113Z,14.02
2022-10-12T02:25:15.039Z,13.32
2022-10-12T02:27:53.813Z,21.45
2022-10-12T02:30:25.484Z,18.38
2022-10-12T02:32:55.784Z,16.23
2022-10-12T02:35:49.192Z,15.93
2022-10-12T02:38:28.495Z,15.75
2022-10-12T02:41:08.405Z,15.02
2022-10-12T02:43:44.138Z,16.38
2022-10-12T02:46:14.334Z,13.43
2022-10-12T02:48:45.827Z,15.82
2022-10-12T02:51:16.256Z,14.15
2022-10-12T02:53:47.880Z,21.58
2022-10-12T02:56:18.320Z,16.67
2022-10-12T02:58:49.306Z,15.82
2022-10-12T03:01:20.738Z,15.82
2022-10-12T03:03:50.271Z,18.63
2022-10-12T03:06:21.731Z,19.80
2022-10-12T03:08:51.218Z,15.10
2022-10-12T03:11:20.623Z,13.73
2022-10-12T03:13:49.888Z,17.15
2022-10-12T03:16:19.386Z,15.45
2022-10-12T03:18:49.156Z,13.98
2022-10-12T03:21:18.913Z,15.73
2022-10-12T03:23:49.415Z,17.20
2022-10-12T03:26:19.219Z,16.08
2022-10-12T03:29:03.487Z,17.65
2022-10-12T03:31:33.950Z,15.25
2022-10-12T03:34:03.373Z,18.20
2022-10-12T03:36:32.831Z,29.20
2022-10-12T03:39:02.090Z,16.88
2022-10-12T03:41:37.106Z,15.73
2022-10-12T03:44:06.467Z,17.02
2022-10-12T03:46:35.876Z,16.88
2022-10-12T03:49:05.166Z,16.05
2022-10-12T03:51:35.487Z,14.57
2022-10-12T03:54:05.887Z,17.80
2022-10-12T03:56:35.200Z,18.35
2022-10-12T03:59:04.773Z,17.25
2022-10-12T04:01:34.263Z,16.60
2022-10-12T04:04:03.624Z,17.35
2022-10-12T04:06:32.885Z,13.75
2022-10-12T04:09:02.240Z,14.60
2022-10-12T04:11:31.527Z,16.13
2022-10-12T04:14:00.765Z,14.48
2022-10-12T04:16:31.265Z,15.13
2022-10-12T04:19:00.687Z,15.75
2022-10-12T04:21:32.693Z,13.50
2022-10-12T04:24:02.035Z,13.73
2022-10-12T04:26:31.332Z,12.80
2022-10-12T04:29:00.676Z,12.90
2022-10-12T04:31:30.001Z,13.30
2022-10-12T04:33:59.685Z,13.27
2022-10-12T04:36:29.135Z,17.00
2022-10-12T04:39:01.070Z,11.20
2022-10-12T04:41:31.108Z,15.25
2022-10-12T04:44:00.672Z,15.52
2022-10-12T04:46:30.334Z,13.98
2022-10-12T04:49:00.199Z,15.57
2022-10-12T04:51:29.517Z,14.00
2022-10-12T04:53:58.822Z,14.55
2022-10-12T04:56:28.270Z,12.63
2022-10-12T04:58:58.513Z,15.20
2022-10-12T05:01:27.816Z,13.95
2022-10-12T05:03:57.638Z,13.02
2022-10-12T05:06:27.162Z,18.55
2022-10-12T05:08:56.610Z,14.02
2022-10-12T05:11:25.918Z,13.32
2022-10-12T05:13:55.139Z,12.80
2022-10-12T05:16:24.401Z,15.07
2022-10-12T05:18:53.851Z,11.60
2022-10-12T05:21:23.075Z,15.30
2022-10-12T05:23:53.730Z,12.25
2022-10-12T05:26:23.069Z,11.73
2022-10-12T05:28:52.348Z,13.18
2022-10-12T05:31:21.680Z,12.40
2022-10-12T05:33:50.971Z,13.25
2022-10-12T05:36:20.237Z,11.73
2022-10-12T05:38:50.282Z,12.38
2022-10-12T05:41:19.715Z,11.73
2022-10-12T05:43:49.137Z,18.65
2022-10-12T05:46:18.384Z,12.20
2022-10-12T05:48:47.841Z,11.00
2022-10-12T05:51:17.125Z,10.30
2022-10-12T05:53:46.900Z,11.02
2022-10-12T05:56:16.451Z,11.50
2022-10-12T05:58:45.735Z,11.68
2022-10-12T06:01:16.141Z,12.10
2022-10-12T06:03:45.462Z,11.05
2022-10-12T06:06:14.678Z,17.17
2022-10-12T06:08:44.231Z,10.10
2022-10-12T06:11:13.823Z,13.43
2022-10-12T06:13:43.172Z,12.15
2022-10-12T06:16:12.548Z,14.10
2022-10-12T06:18:42.009Z,12.85
2022-10-12T06:24:00.652Z,9.63
2022-10-12T06:26:29.925Z,11.20
2022-10-12T06:28:59.237Z,14.63
2022-10-12T06:31:30.056Z,14.95
2022-10-12T06:33:59.335Z,11.20
2022-10-12T06:36:28.661Z,12.02
2022-10-12T06:38:58.046Z,12.45
2022-10-12T06:41:27.368Z,12.60
2022-10-12T06:43:56.708Z,13.23
2022-10-12T06:46:25.955Z,11.40
2022-10-12T06:48:55.274Z,9.27
2022-10-12T06:51:24.648Z,12.93
2022-10-12T06:53:57.470Z,13.30
2022-10-12T06:56:26.847Z,11.02
2022-10-12T06:58:57.723Z,9.75
2022-10-12T07:01:27.397Z,10.13
2022-10-12T07:04:00.495Z,10.27
2022-10-12T07:06:31.650Z,13.70
2022-10-12T07:09:01.066Z,10.77
2022-10-12T07:11:30.901Z,8.68
2022-10-12T07:14:00.564Z,9.27
2022-10-12T07:16:29.973Z,11.57
2022-10-12T07:18:59.260Z,10.02
2022-10-12T07:21:28.644Z,9.18
2022-10-12T07:23:57.936Z,8.98
2022-10-12T07:26:27.316Z,8.45
2022-10-12T07:28:56.654Z,11.48
2022-10-12T07:31:26.183Z,9.70
2022-10-12T07:33:56.837Z,6.55
2022-10-12T07:36:41.094Z,12.35
2022-10-12T07:39:15.316Z,9.15
2022-10-12T07:41:44.489Z,14.68
2022-10-12T07:44:15.347Z,9.23
2022-10-12T07:46:45.147Z,9.05
2022-10-12T07:49:15.659Z,10.50
2022-10-12T07:51:45.713Z,7.47
2022-10-12T07:54:20.314Z,9.90
2022-10-12T07:56:54.559Z,7.95
2022-10-12T08:01:52.794Z,10.77
2022-10-12T08:04:22.280Z,9.48
2022-10-12T08:06:51.531Z,8.18
2022-10-12T08:09:20.911Z,8.50
2022-10-12T08:11:50.150Z,9.13
2022-10-12T08:14:19.835Z,11.82
2022-10-12T08:16:49.712Z,10.65
2022-10-12T08:19:18.939Z,9.23
2022-10-12T08:21:49.328Z,8.65
2022-10-12T08:24:18.577Z,9.57
2022-10-12T08:26:47.879Z,8.52
2022-10-12T08:29:17.618Z,7.13
2022-10-12T08:31:46.950Z,8.48
2022-10-12T08:34:16.217Z,10.27
2022-10-12T08:36:45.518Z,7.97
2022-10-12T08:39:15.012Z,7.38
2022-10-12T08:42:06.714Z,8.75
2022-10-12T08:45:03.215Z,10.27
2022-10-12T08:47:41.697Z,7.97
2022-10-12T08:50:20.147Z,11.13
2022-10-12T08:53:00.028Z,9.15
2022-10-12T08:55:37.219Z,9.75
2022-10-12T08:58:13.895Z,9.13
2022-10-12T09:00:45.121Z,9.25
2022-10-12T09:03:34.387Z,7.10
2022-10-12T09:06:05.701Z,13.20
2022-10-12T09:08:37.027Z,9.52
2022-10-12T09:11:08.307Z,9.98
2022-10-12T09:13:53.262Z,10.07
2022-10-12T09:16:24.672Z,9.48
2022-10-12T09:18:59.253Z,7.20
2022-10-12T09:21:32.295Z,9.77
2022-10-12T09:24:02.816Z,11.10
2022-10-12T09:26:41.521Z,8.65
2022-10-12T09:29:32.712Z,12.30
2022-10-12T09:32:23.139Z,9.57
2022-10-12T09:34:52.997Z,9.95
2022-10-12T09:37:26.439Z,8.25
2022-10-12T09:39:56.504Z,10.10
2022-10-12T09:42:25.773Z,11.60
2022-10-12T09:45:14.249Z,14.45
2022-10-12T09:47:43.680Z,15.23
2022-10-12T09:50:12.879Z,9.70
2022-10-12T09:52:46.776Z,11.60
2022-10-12T09:55:18.254Z,10.45
2022-10-12T09:57:58.620Z,14.07
2022-10-12T10:00:34.241Z,12.88
2022-10-12T10:03:04.777Z,12.20
2022-10-12T10:05:39.277Z,11.93
2022-10-12T10:08:28.586Z,11.27
2022-10-12T10:11:01.060Z,10.38
2022-10-12T10:13:34.294Z,10.00
2022-10-12T10:16:07.630Z,12.27
2022-10-12T10:18:45.805Z,12.70
2022-10-12T10:21:19.190Z,18.75
2022-10-12T10:23:58.705Z,15.43
2022-10-12T10:26:30.164Z,14.25
2022-10-12T10:29:25.542Z,17.70
2022-10-12T10:32:13.364Z,23.75
2022-10-12T10:34:44.640Z,20.25
2022-10-12T10:37:25.230Z,21.27
2022-10-12T10:39:57.563Z,20.33
2022-10-12T10:42:33.246Z,18.08
2022-10-12T10:45:05.915Z,17.73
2022-10-12T10:50:15.479Z,19.55
2022-10-12T10:52:45.760Z,18.13
2022-10-12T10:55:18.079Z,19.10
2022-10-12T10:58:07.376Z,21.80
2022-10-12T11:00:41.262Z,20.30
2022-10-12T11:03:15.300Z,21.40
2022-10-12T11:05:50.358Z,28.95
2022-10-12T11:08:25.725Z,20.83
2022-10-12T11:10:59.446Z,24.20
2022-10-12T11:13:38.140Z,17.30
2022-10-12T11:16:30.167Z,37.22
2022-10-12T11:19:04.402Z,20.40
2022-10-12T11:21:59.872Z,20.45
2022-10-12T11:24:40.366Z,23.02
2022-10-12T11:27:31.835Z,20.92
2022-10-12T11:30:11.641Z,25.60
2022-10-12T11:32:46.726Z,21.08
2022-10-12T11:35:28.433Z,26.65
2022-10-12T11:38:04.461Z,25.02
2022-10-12T11:41:19.069Z,23.83
2022-10-12T11:44:09.817Z,25.40
2022-10-12T11:46:48.572Z,23.38
2022-10-12T11:49:25.744Z,25.15
2022-10-12T11:51:57.331Z,23.42
2022-10-12T11:54:34.535Z,22.25
2022-10-12T11:57:11.981Z,24.08
2022-10-12T12:00:02.427Z,25.45
2022-10-12T12:02:40.471Z,31.55
2022-10-12T12:05:17.265Z,32.88
2022-10-12T12:07:48.401Z,30.88
2022-10-12T12:10:36.735Z,26.38
2022-10-12T12:13:14.448Z,28.67
2022-10-12T12:15:51.180Z,28.45
2022-10-12T12:18:25.722Z,29.88
2022-10-12T12:21:11.373Z,35.53
2022-10-12T12:23:44.816Z,26.75
2022-10-12T12:26:17.091Z,25.20
2022-10-12T12:31:20.750Z,23.95
2022-10-12T12:33:53.553Z,25.67
2022-10-12T12:39:00.357Z,23.25
2022-10-12T12:41:54.088Z,23.38
2022-10-12T12:44:44.677Z,20.02
2022-10-12T12:50:24.536Z,23.10
2022-10-12T12:52:58.577Z,18.17
2022-10-12T12:55:48.963Z,21.88
2022-10-12T12:58:26.697Z,20.50
2022-10-12T13:01:20.144Z,18.15
2022-10-12T13:04:04.688Z,22.65
2022-10-12T13:07:13.266Z,22.60
2022-10-12T13:09:43.660Z,20.88
2022-10-12T13:12:42.884Z,18.92
2022-10-12T13:15:13.154Z,25.13
2022-10-12T13:17:50.548Z,25.65
2022-10-12T13:20:24.688Z,24.38
2022-10-12T13:22:56.659Z,25.45
2022-10-12T13:25:37.974Z,24.40
2022-10-12T13:28:14.129Z,27.40
2022-10-12T13:31:09.210Z,24.33
2022-10-12T13:33:56.249Z,22.73
2022-10-12T13:36:28.708Z,22.60
2022-10-12T13:39:01.665Z,22.27
2022-10-12T13:41:33.477Z,21.55
2022-10-12T13:44:07.130Z,23.65
2022-10-12T13:46:39.498Z,23.77
2022-10-12T13:49:17.333Z,22.58
2022-10-12T13:51:51.613Z,25.60
2022-10-12T13:54:28.677Z,23.00
2022-10-12T13:57:02.456Z,20.63
2022-10-12T13:59:38.177Z,22.70
2022-10-12T14:02:25.597Z,15.63
2022-10-12T14:04:57.982Z,18.70
2022-10-12T14:07:37.929Z,18.95
2022-10-12T14:10:28.082Z,18.38
2022-10-12T14:12:58.648Z,16.30
2022-10-12T14:15:34.120Z,20.63
2022-10-12T14:18:03.595Z,20.95
2022-10-12T14:20:36.435Z,17.85
2022-10-12T14:25:35.994Z,15.10
2022-10-12T14:28:07.725Z,19.90
2022-10-12T14:30:41.765Z,14.32
2022-10-12T14:33:21.116Z,16.80
2022-10-12T14:35:53.092Z,20.80
2022-10-12T14:38:44.146Z,20.33
2022-10-12T14:41:38.158Z,17.30
2022-10-12T14:44:20.058Z,17.40
2022-10-12T14:46:55.622Z,19.30
2022-10-12T14:49:28.523Z,18.08
2022-10-12T14:51:58.055Z,17.88
2022-10-12T14:54:27.351Z,17.83
2022-10-12T14:56:56.748Z,18.30
2022-10-12T14:59:26.017Z,16.55
2022-10-12T15:01:55.330Z,18.08
2022-10-12T15:04:24.699Z,22.58
2022-10-12T15:06:54.044Z,21.00
2022-10-12T15:09:23.374Z,21.75
2022-10-12T15:11:52.606Z,19.08
2022-10-12T15:14:21.938Z,18.23
2022-10-12T15:16:51.585Z,21.23
2022-10-12T15:19:20.800Z,20.65
2022-10-12T15:21:50.041Z,19.25
2022-10-12T15:24:22.095Z,20.50
2022-10-12T15:26:51.335Z,24.45
2022-10-12T15:29:20.619Z,19.48
2022-10-12T15:31:51.266Z,22.05
2022-10-12T15:34:20.702Z,18.85
2022-10-12T15:36:51.011Z,19.85
2022-10-12T15:39:20.344Z,19.30
2022-10-12T15:41:49.637Z,20.27
2022-10-12T15:44:19.234Z,21.25
2022-10-12T15:46:53.355Z,21.63
2022-10-12T15:49:26.232Z,20.15
2022-10-12T15:51:57.031Z,18.90
2022-10-12T15:54:26.276Z,20.25
2022-10-12T15:56:55.475Z,21.42
2022-10-12T15:59:24.869Z,24.17
2022-10-12T16:01:54.121Z,21.55
2022-10-12T16:04:23.953Z,19.65
2022-10-12T16:06:53.221Z,24.58
2022-10-12T16:09:22.463Z,20.30
2022-10-12T16:11:51.806Z,22.55
2022-10-12T16:14:21.101Z,19.13
2022-10-12T16:16:50.325Z,22.50
2022-10-12T16:19:19.600Z,22.73
2022-10-12T16:21:48.910Z,18.65
2022-10-12T16:24:18.073Z,19.40
2022-10-12T16:26:48.772Z,22.77
2022-10-12T16:29:18.084Z,24.77
2022-10-12T16:31:47.260Z,21.50
2022-10-12T16:34:16.757Z,22.27
2022-10-12T16:36:46.014Z,21.40
2022-10-12T16:39:15.560Z,21.00
2022-10-12T16:41:44.834Z,22.73
2022-10-12T16:44:14.051Z,21.58
2022-10-12T16:46:43.388Z,21.48
2022-10-12T16:49:12.553Z,20.92
2022-10-12T16:51:41.735Z,19.90
2022-10-12T16:54:11.022Z,20.48
2022-10-12T16:56:40.254Z,20.00
2022-10-12T17:03:05.354Z,21.65
2022-10-12T17:05:34.575Z,20.08
2022-10-12T17:08:03.789Z,18.42
2022-10-12T17:10:33.093Z,17.77
2022-10-12T17:13:02.312Z,20.25
2022-10-12T17:15:31.579Z,15.48
2022-10-12T17:18:01.083Z,15.40
2022-10-12T17:20:30.263Z,19.23
2022-10-12T17:22:59.470Z,15.45
2022-10-12T17:25:29.139Z,18.92
2022-10-12T17:27:58.457Z,15.18
2022-10-12T17:30:27.651Z,17.48
2022-10-12T17:32:56.894Z,15.48
2022-10-12T17:35:26.074Z,21.17
2022-10-12T17:37:55.369Z,20.23
2022-10-12T17:40:24.564Z,18.58
2022-10-12T17:42:53.736Z,16.95
2022-10-12T17:45:22.988Z,18.90
2022-10-12T17:47:55.140Z,19.98
2022-10-12T17:50:24.457Z,17.08
2022-10-12T17:52:53.691Z,15.65
2022-10-12T17:55:47.120Z,15.10
2022-10-12T17:58:12.318Z,18.35
2022-10-12T18:00:41.634Z,16.70
2022-10-12T18:03:12.794Z,16.05
2022-10-12T18:05:42.136Z,18.08
2022-10-12T18:08:11.342Z,27.33
2022-10-12T18:10:44.356Z,23.42
2022-10-12T18:13:13.599Z,17.08
2022-10-12T18:15:45.253Z,17.40
2022-10-12T18:18:15.496Z,17.23
2022-10-12T18:20:44.862Z,17.48
2022-10-12T18:23:14.369Z,13.27
2022-10-12T18:25:44.833Z,22.80
2022-10-12T18:28:14.882Z,17.05
2022-10-12T18:30:52.646Z,18.60
2022-10-12T18:33:22.234Z,22.00
2022-10-12T18:35:51.532Z,15.13
2022-10-12T18:38:21.078Z,16.33
2022-10-12T18:40:50.247Z,21.70
2022-10-12T18:43:19.630Z,20.77
2022-10-12T18:45:48.830Z,14.68
2022-10-12T18:48:18.814Z,14.55
2022-10-12T18:50:48.153Z,22.90
2022-10-12T18:53:17.415Z,19.60
2022-10-12T18:55:46.730Z,19.77
2022-10-12T18:58:15.976Z,19.95
2022-10-12T19:00:45.273Z,21.13
2022-10-12T19:03:15.241Z,21.95
2022-10-12T19:05:44.426Z,16.55
2022-10-12T19:08:13.709Z,18.83
2022-10-12T19:10:43.293Z,16.40
2022-10-12T19:13:12.565Z,15.27
2022-10-12T19:15:41.804Z,16.23
2022-10-12T19:18:11.019Z,16.70
2022-10-12T19:20:40.355Z,15.52
2022-10-12T19:23:09.657Z,21.55
2022-10-12T19:25:40.339Z,18.00
2022-10-12T19:28:09.544Z,17.65
2022-10-12T19:30:40.880Z,16.33
2022-10-12T19:33:10.085Z,17.48
2022-10-12T19:35:40.164Z,19.15
2022-10-12T19:38:09.448Z,17.52
2022-10-12T19:40:39.368Z,16.55
2022-10-12T19:43:09.110Z,15.05
2022-10-12T19:45:42.812Z,19.75
2022-10-12T19:48:12.658Z,17.83
2022-10-12T19:50:42.029Z,26.80
2022-10-12T19:53:11.862Z,15.93
2022-10-12T19:55:41.088Z,18.20
2022-10-12T19:58:10.471Z,18.48
2022-10-12T20:00:39.798Z,15.80
2022-10-12T20:03:09.171Z,15.02
2022-10-12T20:05:38.361Z,15.43
2022-10-12T20:08:07.731Z,17.15
2022-10-12T20:10:39.185Z,16.20
2022-10-12T20:13:08.575Z,16.80
2022-10-12T20:15:37.782Z,19.17
2022-10-12T20:18:07.258Z,19.85
2022-10-12T20:20:36.524Z,20.50
2022-10-12T20:23:05.714Z,22.00
2022-10-12T20:25:34.981Z,29.10
2022-10-12T20:28:05.548Z,24.80
2022-10-12T20:30:34.860Z,21.70
2022-10-12T20:33:04.431Z,19.83
2022-10-12T20:35:34.074Z,17.70
2022-10-12T20:38:03.440Z,17.35
2022-10-12T20:40:32.697Z,17.05
2022-10-12T20:43:01.982Z,19.45
2022-10-12T20:45:31.226Z,18.65
2022-10-12T20:48:00.455Z,16.95
2022-10-12T20:50:29.902Z,15.90
2022-10-12T20:52:59.277Z,16.77
2022-10-12T20:55:28.516Z,16.40
2022-10-12T20:57:57.705Z,20.95
2022-10-12T21:00:26.908Z,17.10
2022-10-12T21:02:56.137Z,18.38
2022-10-12T21:05:25.370Z,18.35
2022-10-12T21:07:54.640Z,17.50
2022-10-12T21:10:23.856Z,17.40
2022-10-12T21:12:54.972Z,15.57
2022-10-12T21:15:24.213Z,17.15
2022-10-12T21:17:53.424Z,15.77
2022-10-12T21:20:22.654Z,16.80
2022-10-12T21:22:51.923Z,17.60
2022-10-12T21:25:21.164Z,16.67
2022-10-12T21:27:50.348Z,17.40
2022-10-12T21:30:19.671Z,16.75
2022-10-12T21:32:48.890Z,16.60
2022-10-12T21:35:18.161Z,15.98
2022-10-12T21:37:47.414Z,14.88
2022-10-12T21:40:16.648Z,20.30
2022-10-12T21:42:45.879Z,17.02
2022-10-12T21:45:15.165Z,15.23
2022-10-12T21:47:44.382Z,17.70
2022-10-12T21:50:13.533Z,16.58
2022-10-12T21:52:43.031Z,15.40
2022-10-12T21:55:12.281Z,15.30
2022-10-12T21:57:41.461Z,18.17
2022-10-12T22:00:14.683Z,14.27
2022-10-12T22:02:43.887Z,15.10
2022-10-12T22:05:13.092Z,16.23
2022-10-12T22:07:44.803Z,18.35
2022-10-12T22:10:14.383Z,17.35
2022-10-12T22:12:43.595Z,15.55
2022-10-12T22:15:13.452Z,15.68
2022-10-12T22:17:42.630Z,16.00
2022-10-12T22:20:12.487Z,16.20
2022-10-12T22:22:41.800Z,15.85
2022-10-12T22:25:11.234Z,17.20
2022-10-12T22:27:40.433Z,18.40
2022-10-12T22:30:10.172Z,15.80
2022-10-12T22:32:39.443Z,20.58
2022-10-12T22:35:09.171Z,18.30
2022-10-12T22:37:38.482Z,17.25
2022-10-12T22:40:08.397Z,16.83
2022-10-12T22:42:37.602Z,19.00
2022-10-12T22:45:07.130Z,17.20
2022-10-12T22:47:36.324Z,15.27
2022-10-12T22:50:05.743Z,16.95
2022-10-12T22:52:35.657Z,18.00
2022-10-12T22:55:04.864Z,17.15
2022-10-12T22:57:34.069Z,18.17
2022-10-12T23:00:03.260Z,16.52
2022-10-12T23:02:32.541Z,15.93
2022-10-12T23:05:03.373Z,17.05
2022-10-12T23:07:32.717Z,14.00
2022-10-12T23:10:01.939Z,16.63
2022-10-12T23:12:31.162Z,18.35
2022-10-12T23:15:00.489Z,17.38
2022-10-12T23:17:29.672Z,16.55
2022-10-12T23:19:58.963Z,15.82
2022-10-12T23:22:29.288Z,18.20
2022-10-12T23:24:58.499Z,18.25
2022-10-12T23:27:27.810Z,17.20
2022-10-12T23:29:57.138Z,17.40
2022-10-12T23:32:26.364Z,21.02
2022-10-12T23:34:55.640Z,17.50
2022-10-12T23:37:24.870Z,18.25
2022-10-12T23:39:54.086Z,26.52
2022-10-12T23:42:23.650Z,36.03
2022-10-12T23:44:52.848Z,25.55
2022-10-12T23:47:22.066Z,23.60
2022-10-12T23:49:51.289Z,29.70
2022-10-12T23:52:20.854Z,24.02
2022-10-12T23:54:50.337Z,24.17
2022-10-12T23:57:45.259Z,22.70
